Otsego, Indiana
Current Conditions -  °F | °C
As of 3:35 PM on Friday 31 Oct 2014 (Local Time) from KANQ Reporting Station
NA  
Wind Chill: 37°   Ceiling: NA
Heat Index: 43°   Visibility: NA
Dew Point: 30°   Wind: 9mph
Humidity: 61%   Direction: 340°NNW
Pressure: 29.92"   Gusts: NA
Location:  41.5557°N, 84.8806°W
Report Text: KANQ 311935Z AUTO 34008KT 06/M01 A2992 RMK
Loading
Personal Weather Stations






























Interactive Weather Map
Tropical Storm Tracking
New forecast layout! Learn more

10-Day Weather Forecast

Advertisements
Track Severe Weather on mobile